Ms Signal — SFWL — position and weather

sailwx.info

Track history (hours):
 
Tides and Currents Weather Stations Pressure Air Temp Water Temp Dewpoint Dewpoint Depression Visibility Wind Speed Wind Dir Waves Ship Positions

Ms Signal

Last reported at 2017-Feb-24 11:20 UTC. Time now 2017-Feb-25 07:33 UTC.
Position N 59°21' E 018°08'.

Length 16 m.

Type: Diving. MMSI: 265648340.

Date/timePositionNaut miles runAvg speedWind from/ knotsBaromVisibWave heightAir tempDewpointWater temp
2017-Feb-24 11:20N 59°21' E 018°08'2 2.5
2017-Feb-24 10:33N 59°19' E 018°05'0 0.1
2017-Feb-24 09:32N 59°19' E 018°05'0 0.2
2017-Feb-24 08:33N 59°20' E 018°04'2 2.1
2017-Feb-24 07:33N 59°19' E 018°08'1 0.1
2017-Feb-23 14:28N 59°21' E 018°08'3 2.4
2017-Feb-23 13:24N 59°18' E 018°05'0 0.1
2017-Feb-23 12:31N 59°18' E 018°05'0 0.2
2017-Feb-23 11:33N 59°18' E 018°06'0 0.0
2017-Feb-23 10:12N 59°18' E 018°06'0 0.0
2017-Feb-23 09:33N 59°18' E 018°06'0 0.3
2017-Feb-23 08:32N 59°19' E 018°06'0 0.0
2017-Feb-23 07:32N 59°19' E 018°06'2 2.1
2017-Feb-23 06:33N 59°21' E 018°08'0 0.0
2017-Feb-21 13:33N 59°21' E 018°08'3 2.8
2017-Feb-21 12:33N 59°18' E 018°05'0 0.0
2017-Feb-21 11:33N 59°18' E 018°05'0 0.0
2017-Feb-21 10:30N 59°18' E 018°05'0 0.0
2017-Feb-21 09:31N 59°18' E 018°05'0 0.4
2017-Feb-21 08:33N 59°18' E 018°05'0 0.2
2017-Feb-21 07:33N 59°18' E 018°06'2 0.1
2017-Feb-20 14:04N 59°21' E 018°08'0 0.4
2017-Feb-20 13:33N 59°21' E 018°08'3 3.0
2017-Feb-20 12:33N 59°18' E 018°05'0 0.0
2017-Feb-20 11:33N 59°18' E 018°05'0 0.0
2017-Feb-20 10:30N 59°18' E 018°05'0 0.0
2017-Feb-20 09:33N 59°18' E 018°05'0 0.0
2017-Feb-20 08:21N 59°18' E 018°05'2 2.2
2017-Feb-20 07:33N 59°19' E 018°08'  
2017-Feb-17 09:14N 59°21' E 018°08'1 0.4
2017-Feb-17 06:26N 59°22' E 018°06'1 0.1
2017-Feb-16 13:04N 59°21' E 018°08'3 4.9
2017-Feb-16 12:32N 59°18' E 018°05'0 0.3
2017-Feb-16 11:32N 59°18' E 018°05'0 0.1
2017-Feb-16 10:34N 59°18' E 018°05'0 0.0
2017-Feb-16 09:32N 59°18' E 018°05'0 0.1
2017-Feb-16 08:33N 59°18' E 018°05'1 0.5
2017-Feb-16 07:33N 59°18' E 018°06'2 0.1
2017-Feb-15 14:28N 59°21' E 018°08'3 3.0
2017-Feb-15 13:32N 59°18' E 018°05'0 0.0
2017-Feb-15 12:32N 59°18' E 018°05'0 0.1
2017-Feb-15 11:31N 59°18' E 018°05'0 0.1
2017-Feb-15 10:33N 59°18' E 018°05'0 0.1
2017-Feb-15 09:33N 59°18' E 018°05'3 2.7
2017-Feb-15 08:33N 59°21' E 018°08'0 0.0
2017-Feb-15 07:32N 59°21' E 018°08'0 0.0
2017-Feb-15 06:32N 59°21' E 018°08'  
Track history (hours):
 
Tides and Currents Weather Stations Pressure Air Temp Water Temp Dewpoint Dewpoint Depression Visibility Wind Speed Wind Dir Waves Ship Positions

Ms Signal

Last reported at 2017-Feb-24 11:20 UTC. Time now 2017-Feb-25 07:33 UTC.
Position N 59°21' E 018°08'.

Length 16 m.

Type: Diving. MMSI: 265648340.

Date/timePositionNaut miles runAvg speedWind from/ knotsBaromVisibWave heightAir tempDewpointWater temp
2017-Feb-24 11:20N 59°21' E 018°08'2 2.5
2017-Feb-24 10:33N 59°19' E 018°05'0 0.1
2017-Feb-24 09:32N 59°19' E 018°05'0 0.2
2017-Feb-24 08:33N 59°20' E 018°04'2 2.1
2017-Feb-24 07:33N 59°19' E 018°08'1 0.1
2017-Feb-23 14:28N 59°21' E 018°08'3 2.4
2017-Feb-23 13:24N 59°18' E 018°05'0 0.1
2017-Feb-23 12:31N 59°18' E 018°05'0 0.2
2017-Feb-23 11:33N 59°18' E 018°06'0 0.0
2017-Feb-23 10:12N 59°18' E 018°06'0 0.0
2017-Feb-23 09:33N 59°18' E 018°06'0 0.3
2017-Feb-23 08:32N 59°19' E 018°06'0 0.0
2017-Feb-23 07:32N 59°19' E 018°06'2 2.1
2017-Feb-23 06:33N 59°21' E 018°08'0 0.0
2017-Feb-21 13:33N 59°21' E 018°08'3 2.8
2017-Feb-21 12:33N 59°18' E 018°05'0 0.0
2017-Feb-21 11:33N 59°18' E 018°05'0 0.0
2017-Feb-21 10:30N 59°18' E 018°05'0 0.0
2017-Feb-21 09:31N 59°18' E 018°05'0 0.4
2017-Feb-21 08:33N 59°18' E 018°05'0 0.2
2017-Feb-21 07:33N 59°18' E 018°06'2 0.1
2017-Feb-20 14:04N 59°21' E 018°08'0 0.4
2017-Feb-20 13:33N 59°21' E 018°08'3 3.0
2017-Feb-20 12:33N 59°18' E 018°05'0 0.0
2017-Feb-20 11:33N 59°18' E 018°05'0 0.0
2017-Feb-20 10:30N 59°18' E 018°05'0 0.0
2017-Feb-20 09:33N 59°18' E 018°05'0 0.0
2017-Feb-20 08:21N 59°18' E 018°05'2 2.2
2017-Feb-20 07:33N 59°19' E 018°08'  
2017-Feb-17 09:14N 59°21' E 018°08'1 0.4
2017-Feb-17 06:26N 59°22' E 018°06'1 0.1
2017-Feb-16 13:04N 59°21' E 018°08'3 4.9
2017-Feb-16 12:32N 59°18' E 018°05'0 0.3
2017-Feb-16 11:32N 59°18' E 018°05'0 0.1
2017-Feb-16 10:34N 59°18' E 018°05'0 0.0
2017-Feb-16 09:32N 59°18' E 018°05'0 0.1
2017-Feb-16 08:33N 59°18' E 018°05'1 0.5
2017-Feb-16 07:33N 59°18' E 018°06'2 0.1
2017-Feb-15 14:28N 59°21' E 018°08'3 3.0
2017-Feb-15 13:32N 59°18' E 018°05'0 0.0
2017-Feb-15 12:32N 59°18' E 018°05'0 0.1
2017-Feb-15 11:31N 59°18' E 018°05'0 0.1
2017-Feb-15 10:33N 59°18' E 018°05'0 0.1
2017-Feb-15 09:33N 59°18' E 018°05'3 2.7
2017-Feb-15 08:33N 59°21' E 018°08'0 0.0
2017-Feb-15 07:32N 59°21' E 018°08'0 0.0
2017-Feb-15 06:32N 59°21' E 018°08'  

Dump ship's entire track history